createdAt,value
2018-09-27T00:02:27.772Z,99.9
2018-09-27T00:07:27.681Z,99.9
2018-09-27T00:12:26.960Z,99.9
2018-09-27T00:17:28.065Z,99.9
2018-09-27T00:22:27.610Z,99.9
2018-09-27T00:27:28.382Z,99.9
2018-09-27T00:32:28.110Z,99.9
2018-09-27T00:37:27.881Z,99.9
2018-09-27T00:42:27.845Z,99.9
2018-09-27T00:47:27.669Z,99.9
2018-09-27T00:52:27.791Z,99.9
2018-09-27T00:57:27.700Z,99.9
2018-09-27T01:02:28.049Z,99.9
2018-09-27T01:07:27.895Z,99.9
2018-09-27T01:12:28.406Z,99.9
2018-09-27T01:17:28.597Z,99.9
2018-09-27T01:22:28.105Z,99.9
2018-09-27T01:27:28.032Z,99.9
2018-09-27T01:32:27.894Z,99.9
2018-09-27T01:37:27.644Z,99.9
2018-09-27T01:42:28.164Z,99.9
2018-09-27T01:47:28.791Z,99.9
2018-09-27T01:52:28.122Z,99.9
2018-09-27T01:57:27.511Z,99.9
2018-09-27T02:02:28.093Z,99.9
2018-09-27T02:07:27.722Z,99.9
2018-09-27T02:12:27.561Z,99.9
2018-09-27T02:17:28.430Z,99.9
2018-09-27T02:22:27.882Z,99.9
2018-09-27T02:27:27.853Z,99.9
2018-09-27T02:32:28.604Z,99.9
2018-09-27T02:37:27.409Z,99.9
2018-09-27T02:42:28.699Z,99.9
2018-09-27T02:47:28.096Z,99.9
2018-09-27T02:52:27.628Z,99.9
2018-09-27T02:57:27.766Z,99.9
2018-09-27T03:02:28.581Z,99.9
2018-09-27T03:07:28.433Z,99.9
2018-09-27T03:12:27.414Z,99.9
2018-09-27T03:17:28.286Z,99.9
2018-09-27T03:22:27.998Z,99.9
2018-09-27T03:27:28.838Z,99.9
2018-09-27T03:33:34.414Z,99.9
2018-09-27T03:37:28.377Z,99.9
2018-09-27T03:42:28.397Z,99.9
2018-09-27T03:47:28.262Z,99.9
2018-09-27T03:52:28.568Z,99.9
2018-09-27T03:57:27.713Z,99.9
2018-09-27T04:02:27.671Z,99.9
2018-09-27T04:07:27.659Z,99.9
2018-09-27T04:12:27.567Z,99.9
2018-09-27T04:17:28.614Z,99.9
2018-09-27T04:22:27.783Z,99.9
2018-09-27T04:27:27.805Z,99.9
2018-09-27T04:32:28.255Z,99.9
2018-09-27T04:37:28.400Z,99.9
2018-09-27T04:42:28.175Z,99.9
2018-09-27T04:47:28.310Z,99.9
2018-09-27T04:52:27.880Z,99.9
2018-09-27T04:57:27.852Z,99.9
2018-09-27T05:02:28.332Z,99.9
2018-09-27T05:07:28.802Z,99.9
2018-09-27T05:12:28.615Z,99.9
2018-09-27T05:17:28.796Z,99.9
2018-09-27T05:22:28.648Z,99.9
2018-09-27T05:27:28.552Z,99.9
2018-09-27T05:32:28.511Z,99.9
2018-09-27T05:37:28.057Z,99.9
2018-09-27T05:42:28.895Z,99.9
2018-09-27T05:47:28.598Z,99.9
2018-09-27T05:52:28.211Z,99.9
2018-09-27T05:57:28.328Z,99.9
2018-09-27T06:02:28.968Z,99.9
2018-09-27T06:07:28.764Z,99.9
2018-09-27T06:12:28.640Z,99.9
2018-09-27T06:17:28.568Z,99.9
2018-09-27T06:22:28.274Z,99.9
2018-09-27T06:27:28.472Z,99.9
2018-09-27T06:32:28.983Z,99.9
2018-09-27T06:37:28.694Z,99.9
2018-09-27T06:42:28.402Z,99.9
2018-09-27T06:47:28.794Z,99.9
2018-09-27T06:52:28.210Z,99.9
2018-09-27T06:57:28.685Z,99.9
2018-09-27T07:02:29.041Z,99.9
2018-09-27T07:07:28.209Z,99.9
2018-09-27T07:12:29.022Z,99.9
2018-09-27T07:17:28.048Z,99.9
2018-09-27T07:22:28.526Z,99.9
2018-09-27T07:27:28.725Z,99.9
2018-09-27T07:32:28.478Z,99.9
2018-09-27T07:37:28.961Z,99.9
2018-09-27T07:42:28.185Z,99.9
2018-09-27T07:47:29.378Z,99.9
2018-09-27T07:52:28.682Z,99.9
2018-09-27T07:57:28.347Z,99.9
2018-09-27T08:02:27.405Z,99.9
2018-09-27T08:07:28.590Z,99.9
2018-09-27T08:12:28.708Z,99.9
2018-09-27T08:17:29.088Z,99.9
2018-09-27T08:22:28.568Z,99.9
2018-09-27T08:27:29.220Z,99.9
2018-09-27T08:32:28.105Z,99.9
2018-09-27T08:37:28.424Z,99.9
2018-09-27T08:42:28.386Z,99.9
2018-09-27T08:47:28.924Z,99.9
2018-09-27T08:52:29.128Z,99.9
2018-09-27T08:57:27.800Z,99.9
2018-09-27T09:02:28.417Z,99.9
2018-09-27T09:07:28.880Z,99.9
2018-09-27T09:12:28.643Z,99.9
2018-09-27T09:17:28.739Z,99.9
2018-09-27T09:22:28.090Z,99.9
2018-09-27T09:27:28.503Z,99.9
2018-09-27T09:32:28.045Z,99.9
2018-09-27T09:37:28.741Z,99.9
2018-09-27T09:42:28.901Z,99.9
2018-09-27T09:47:28.773Z,99.9
2018-09-27T09:52:28.004Z,99.9
2018-09-27T09:57:28.313Z,99.9
2018-09-27T10:02:28.853Z,99.9
2018-09-27T10:07:29.443Z,99.9
2018-09-27T10:12:28.155Z,99.9
2018-09-27T10:17:28.166Z,99.9
2018-09-27T10:22:28.987Z,99.9
2018-09-27T10:27:28.459Z,99.9
2018-09-27T10:32:28.300Z,99.9
2018-09-27T10:37:28.636Z,99.9
2018-09-27T10:42:27.878Z,99.9
2018-09-27T10:47:28.726Z,99.9
2018-09-27T10:52:29.822Z,99.9
2018-09-27T10:57:27.797Z,99.9
2018-09-27T11:02:28.864Z,99.9
2018-09-27T11:07:28.602Z,99.9
2018-09-27T11:12:28.993Z,99.9
2018-09-27T11:17:28.883Z,99.9
2018-09-27T11:22:28.056Z,99.9
2018-09-27T11:27:28.536Z,99.9
2018-09-27T11:32:27.862Z,99.9
2018-09-27T11:37:28.980Z,99.9
2018-09-27T11:42:28.708Z,99.9
2018-09-27T11:47:29.031Z,99.9
2018-09-27T11:52:28.017Z,99.9
2018-09-27T11:57:27.821Z,99.9
2018-09-27T12:02:28.114Z,99.9
2018-09-27T12:07:29.099Z,99.9
2018-09-27T12:12:28.320Z,99.9
2018-09-27T12:17:29.336Z,99.9
2018-09-27T12:22:28.648Z,99.9
2018-09-27T12:27:28.118Z,99.9
2018-09-27T12:32:28.736Z,99.9
2018-09-27T12:37:28.409Z,99.9
2018-09-27T12:42:28.873Z,99.9
2018-09-27T12:47:28.167Z,99.9
2018-09-27T12:52:28.775Z,99.9
2018-09-27T12:57:27.562Z,99.9
2018-09-27T13:02:29.141Z,99.9
2018-09-27T13:07:28.590Z,99.9
2018-09-27T13:12:28.749Z,99.9
2018-09-27T13:17:36.542Z,99.9
2018-09-27T13:22:29.095Z,99.9
2018-09-27T13:27:28.395Z,99.9
2018-09-27T13:32:28.106Z,99.9
2018-09-27T13:37:28.827Z,99.9
2018-09-27T13:42:27.810Z,99.9
2018-09-27T13:47:28.877Z,99.9
2018-09-27T13:52:28.591Z,99.9
2018-09-27T13:57:28.509Z,99.9
2018-09-27T14:02:29.212Z,99.9
2018-09-27T14:07:27.936Z,99.9
2018-09-27T14:12:28.524Z,99.9
2018-09-27T14:17:28.964Z,99.9
2018-09-27T14:22:28.412Z,99.9
2018-09-27T14:27:29.781Z,99.9
2018-09-27T14:32:28.902Z,99.9
2018-09-27T14:37:27.992Z,99.9
2018-09-27T14:42:28.776Z,99.9
2018-09-27T14:47:28.392Z,99.9
2018-09-27T14:52:28.446Z,99.9
2018-09-27T14:57:28.119Z,99.9
2018-09-27T15:02:28.834Z,99.9
2018-09-27T15:07:28.596Z,99.3
2018-09-27T15:12:28.154Z,99.3
2018-09-27T15:17:28.870Z,98.1
2018-09-27T15:22:28.960Z,95.9
2018-09-27T15:27:28.496Z,95.9
2018-09-27T15:32:29.161Z,94.7
2018-09-27T15:37:27.598Z,92.9
2018-09-27T15:42:28.027Z,92.7
2018-09-27T15:47:29.057Z,93.0
2018-09-27T15:52:28.109Z,92.6
2018-09-27T15:57:28.057Z,92.8
2018-09-27T16:02:28.359Z,92.8
2018-09-27T16:07:28.427Z,92.7
2018-09-27T16:12:28.695Z,92.7
2018-09-27T16:17:28.213Z,93.0
2018-09-27T16:22:28.784Z,93.8
2018-09-27T16:27:28.862Z,93.6
2018-09-27T16:32:27.674Z,92.7
2018-09-27T16:37:27.906Z,93.7
2018-09-27T16:42:27.759Z,93.4
2018-09-27T16:47:28.214Z,94.4
2018-09-27T16:52:28.828Z,94.0
2018-09-27T16:57:28.072Z,95.3
2018-09-27T17:02:28.100Z,94.6
2018-09-27T17:07:28.795Z,97.0
2018-09-27T17:12:28.483Z,99.9
2018-09-27T17:17:28.801Z,99.9
2018-09-27T17:22:27.801Z,99.9
2018-09-27T17:27:28.429Z,99.9
2018-09-27T17:32:28.266Z,99.9
2018-09-27T17:37:28.974Z,99.9
2018-09-27T17:42:28.148Z,99.9
2018-09-27T17:47:27.891Z,99.9
2018-09-27T17:52:28.171Z,99.9
2018-09-27T17:57:28.163Z,99.9
2018-09-27T18:02:28.041Z,99.9
2018-09-27T18:07:28.080Z,99.9
2018-09-27T18:12:28.668Z,99.9
2018-09-27T18:17:28.667Z,99.9
2018-09-27T18:22:27.823Z,99.9
2018-09-27T18:27:28.557Z,99.9
2018-09-27T18:32:28.857Z,99.9
2018-09-27T18:37:29.043Z,99.9
2018-09-27T18:42:27.347Z,99.9
2018-09-27T18:47:27.896Z,99.9
2018-09-27T18:52:28.441Z,99.9
2018-09-27T18:57:28.379Z,99.9
2018-09-27T19:02:28.269Z,99.9
2018-09-27T19:07:28.495Z,99.9
2018-09-27T19:12:27.574Z,99.9
2018-09-27T19:17:27.642Z,99.9
2018-09-27T19:22:28.297Z,99.9
2018-09-27T19:27:27.929Z,99.9
2018-09-27T19:32:28.005Z,99.9
2018-09-27T19:37:29.487Z,99.9
2018-09-27T19:42:28.332Z,99.9
2018-09-27T19:47:28.912Z,99.9
2018-09-27T19:52:28.976Z,99.9
2018-09-27T19:57:28.757Z,99.9
2018-09-27T20:02:28.653Z,99.9
2018-09-27T20:07:28.459Z,99.9
2018-09-27T20:12:27.686Z,99.9
2018-09-27T20:17:28.382Z,99.9
2018-09-27T20:22:27.376Z,99.9
2018-09-27T20:27:28.318Z,99.9
2018-09-27T20:32:28.301Z,99.9
2018-09-27T20:37:27.820Z,99.9
2018-09-27T20:42:28.379Z,99.9
2018-09-27T20:47:27.854Z,99.9
2018-09-27T20:52:27.808Z,99.9
2018-09-27T20:57:27.378Z,99.9
2018-09-27T21:02:28.126Z,99.9
2018-09-27T21:07:27.588Z,99.9
2018-09-27T21:12:28.122Z,99.9
2018-09-27T21:17:28.311Z,99.9
2018-09-27T21:22:27.365Z,99.9
2018-09-27T21:27:27.869Z,99.9
2018-09-27T21:32:27.710Z,99.9
2018-09-27T21:37:28.078Z,99.9
2018-09-27T21:42:28.817Z,99.9
2018-09-27T21:47:28.313Z,99.9
2018-09-27T21:52:28.385Z,99.9
2018-09-27T21:57:27.800Z,99.9
2018-09-27T22:02:27.799Z,99.9
2018-09-27T22:07:28.035Z,99.9
2018-09-27T22:12:28.418Z,99.9
2018-09-27T22:23:04.441Z,99.9
2018-09-27T22:28:03.226Z,99.9
2018-09-27T22:33:03.767Z,99.9
2018-09-27T22:38:02.786Z,99.9
2018-09-27T22:43:03.656Z,99.9
2018-09-27T22:48:04.401Z,99.9
2018-09-27T22:53:03.259Z,99.9
2018-09-27T22:58:04.068Z,99.9
2018-09-27T23:03:03.316Z,99.9
2018-09-27T23:08:04.343Z,99.9
2018-09-27T23:12:27.690Z,99.9
2018-09-27T23:17:28.042Z,99.9
2018-09-27T23:22:27.627Z,99.9
2018-09-27T23:27:28.001Z,99.9
2018-09-27T23:32:27.726Z,99.9
2018-09-27T23:37:27.926Z,99.9
2018-09-27T23:42:27.673Z,99.9
2018-09-27T23:47:28.657Z,99.9
2018-09-27T23:52:27.572Z,99.9
2018-09-27T23:57:27.596Z,99.9
